Time;durP1;ratioP1;P1;durP2;ratioP2;P2;SDS_P1;SDS_P2;PMS_P1;PMS_P2;Temp;Humidity;BMP_temperature;BMP_pressure;BME280_temperature;BME280_humidity;BME280_pressure;Samples;Min_cycle;Max_cycle;Signal;HPM_P1;HPM_P2
2024/01/14 00:09:10;;;;;;;0.30;0.00;;;-3.30;99.30;;;;;;21081011;28;20039;-45
2024/01/14 00:19:13;;;;;;;0.10;0.00;;;-3.40;98.60;;;;;;21019740;28;20129;-44
2024/01/14 00:29:15;;;;;;;0.00;0.00;;;-3.50;98.70;;;;;;20948713;28;20044;-45
2024/01/14 00:39:17;;;;;;;0.15;0.00;;;-3.50;99.30;;;;;;20982151;28;20048;-46
2024/01/14 00:49:19;;;;;;;0.00;0.00;;;-3.40;98.40;;;;;;21077730;28;20107;-46
2024/01/14 00:59:23;;;;;;;0.22;0.10;;;-3.40;97.40;;;;;;21077404;28;20032;-45
2024/01/14 01:09:25;;;;;;;0.20;0.00;;;-3.30;98.40;;;;;;21074918;28;20031;-46
2024/01/14 01:19:27;;;;;;;0.10;0.00;;;-3.20;99.90;;;;;;21075554;28;20389;-45
2024/01/14 01:29:30;;;;;;;1.92;0.10;;;-3.30;98.60;;;;;;21072846;28;20040;-45
2024/01/14 01:39:32;;;;;;;0.10;0.00;;;-3.00;97.60;;;;;;21073175;28;20077;-45
2024/01/14 01:49:34;;;;;;;0.17;0.08;;;-3.00;98.60;;;;;;21005359;28;20032;-45
2024/01/14 01:59:36;;;;;;;0.20;0.03;;;-3.10;97.10;;;;;;21072524;28;20042;-47
2024/01/14 02:09:38;;;;;;;0.03;0.00;;;-3.00;96.40;;;;;;21061481;28;20024;-45
2024/01/14 02:19:40;;;;;;;0.00;0.00;;;-3.00;96.00;;;;;;20993725;28;20039;-44
2024/01/14 02:29:43;;;;;;;0.00;0.00;;;-3.00;95.10;;;;;;21042746;28;20032;-45
2024/01/14 02:39:45;;;;;;;0.22;0.08;;;-2.90;95.20;;;;;;21060500;28;20071;-46
2024/01/14 02:49:46;;;;;;;0.10;0.00;;;-2.90;95.20;;;;;;21065183;28;20104;-45
2024/01/14 02:59:48;;;;;;;0.05;0.00;;;-3.10;95.90;;;;;;21068196;28;20039;-48
2024/01/14 03:09:50;;;;;;;0.47;0.10;;;-3.30;95.50;;;;;;21067403;28;20095;-44
2024/01/14 03:19:52;;;;;;;0.45;0.03;;;-3.40;96.60;;;;;;21066948;28;20032;-44
2024/01/14 03:29:53;;;;;;;0.38;0.00;;;-3.50;95.90;;;;;;21070466;28;20036;-44
2024/01/14 03:39:57;;;;;;;0.85;0.10;;;-3.60;96.50;;;;;;21081334;28;20040;-47
2024/01/14 03:49:59;;;;;;;0.30;0.00;;;-3.60;97.50;;;;;;21083064;28;20047;-45
2024/01/14 04:00:00;;;;;;;0.20;0.00;;;-3.70;98.00;;;;;;21082281;28;20039;-45
2024/01/14 04:10:02;;;;;;;0.47;0.10;;;-3.50;97.50;;;;;;21080939;28;20036;-44
2024/01/14 04:20:05;;;;;;;0.10;0.00;;;-3.40;95.80;;;;;;21080190;28;20040;-47
2024/01/14 04:30:08;;;;;;;0.00;0.00;;;-3.40;95.20;;;;;;21079915;28;20077;-45
2024/01/14 04:40:10;;;;;;;0.85;0.10;;;-3.20;95.00;;;;;;21078211;28;20044;-45
2024/01/14 04:50:12;;;;;;;0.40;0.20;;;-3.10;95.80;;;;;;21078250;28;20101;-43
2024/01/14 05:00:14;;;;;;;0.13;0.00;;;-3.40;96.30;;;;;;21077567;28;20044;-43
2024/01/14 05:10:16;;;;;;;0.47;0.15;;;-3.50;96.50;;;;;;21041362;28;20112;-44
2024/01/14 05:20:17;;;;;;;1.25;0.10;;;-3.50;97.70;;;;;;21075399;28;20039;-45
2024/01/14 05:30:19;;;;;;;0.32;0.13;;;-3.60;97.70;;;;;;21075015;28;20028;-44
2024/01/14 05:40:21;;;;;;;0.25;0.20;;;-3.60;98.20;;;;;;21073750;28;20058;-45
2024/01/14 05:50:23;;;;;;;0.10;0.10;;;-3.60;97.10;;;;;;21072876;28;20032;-46
2024/01/14 06:00:25;;;;;;;0.10;0.10;;;-3.70;97.30;;;;;;21072186;28;20040;-44
2024/01/14 06:10:27;;;;;;;0.22;0.10;;;-3.70;97.40;;;;;;21071677;28;20466;-46
2024/01/14 06:20:28;;;;;;;0.28;0.10;;;-3.80;97.60;;;;;;21069891;28;20043;-46
2024/01/14 06:30:30;;;;;;;0.50;0.17;;;-4.00;97.30;;;;;;21070637;28;20032;-44
2024/01/14 06:40:32;;;;;;;0.30;0.10;;;-3.80;99.00;;;;;;21045023;28;20052;-45
2024/01/14 06:50:34;;;;;;;0.17;0.10;;;-3.90;98.80;;;;;;21054948;28;20077;-45
2024/01/14 07:00:35;;;;;;;0.73;0.10;;;-3.70;97.20;;;;;;21058737;28;20032;-47
2024/01/14 07:10:37;;;;;;;0.10;0.10;;;-3.70;97.20;;;;;;21062001;28;20035;-46
2024/01/14 07:20:41;;;;;;;1.40;0.80;;;-3.60;97.00;;;;;;21061389;28;20085;-44
2024/01/14 07:30:42;;;;;;;0.88;0.30;;;-3.30;96.70;;;;;;21061981;28;20101;-44
2024/01/14 07:40:44;;;;;;;0.30;0.10;;;-3.20;96.00;;;;;;21047942;28;20412;-44
2024/01/14 07:50:46;;;;;;;0.22;0.10;;;-2.80;96.00;;;;;;21059138;28;20039;-43
2024/01/14 08:00:49;;;;;;;0.15;0.10;;;-2.60;96.20;;;;;;21061514;28;20389;-44
2024/01/14 08:10:52;;;;;;;0.93;0.60;;;-1.80;95.80;;;;;;21054381;28;20036;-47
2024/01/14 08:20:53;;;;;;;2.00;0.60;;;-0.90;96.80;;;;;;21042644;28;20047;-43
2024/01/14 08:31:01;;;;;;;1.40;0.43;;;-0.50;97.00;;;;;;21054122;28;20036;-44
2024/01/14 08:41:05;;;;;;;1.90;0.57;;;0.30;96.20;;;;;;21071303;28;20047;-45
2024/01/14 08:51:09;;;;;;;0.82;0.43;;;1.50;95.90;;;;;;21065449;28;20035;-48
2024/01/14 09:01:14;;;;;;;0.90;0.50;;;2.20;92.50;;;;;;21058121;28;20036;-48
2024/01/14 09:11:19;;;;;;;2.40;1.30;;;2.50;94.00;;;;;;21069658;28;20439;-46
2024/01/14 09:21:21;;;;;;;2.08;1.00;;;3.10;94.60;;;;;;21064342;28;20036;-45
2024/01/14 09:31:23;;;;;;;2.63;1.35;;;3.40;92.20;;;;;;21055352;28;20040;-46
2024/01/14 09:42:03;;;;;;;3.53;1.73;;;3.90;93.00;;;;;;21063571;28;20043;-49
2024/01/14 09:52:05;;;;;;;;;;;4.40;94.00;;;;;;20724073;28;20069;-46
2024/01/14 10:02:10;;;;;;;3.20;1.92;;;4.30;93.50;;;;;;20726736;28;19972;-49
2024/01/14 10:12:13;;;;;;;3.95;1.63;;;4.20;93.90;;;;;;20700137;28;20594;-47
2024/01/14 10:22:15;;;;;;;4.55;2.33;;;4.10;93.90;;;;;;20879945;28;20079;-45
2024/01/14 10:32:19;;;;;;;3.60;2.30;;;3.80;95.80;;;;;;21028497;28;20062;-50
2024/01/14 10:42:20;;;;;;;3.33;2.00;;;3.90;95.30;;;;;;21058847;28;20047;-45
2024/01/14 10:52:26;;;;;;;4.07;1.95;;;4.00;95.40;;;;;;21059088;28;20057;-47
2024/01/14 11:02:29;;;;;;;4.32;2.28;;;3.80;94.50;;;;;;21057458;28;20065;-45
2024/01/14 11:12:37;;;;;;;3.63;2.28;;;3.90;94.80;;;;;;21058764;28;20105;-45
2024/01/14 11:22:39;;;;;;;4.70;2.08;;;3.90;94.70;;;;;;21055417;28;20036;-44
2024/01/14 11:32:41;;;;;;;3.20;1.98;;;4.00;96.00;;;;;;21061683;28;20052;-43
2024/01/14 11:43:00;;;;;;;7.10;2.30;;;3.80;95.00;;;;;;21054439;28;20040;-51
2024/01/14 11:53:04;;;;;;;4.05;2.20;;;2.80;95.30;;;;;;21065043;28;20032;-44
2024/01/14 12:03:16;;;;;;;4.90;2.35;;;2.20;96.90;;;;;;21078173;28;20036;-42
2024/01/14 12:13:18;;;;;;;5.53;2.30;;;1.70;97.30;;;;;;21073939;28;20040;-46
2024/01/14 12:23:21;;;;;;;6.55;2.80;;;1.70;96.80;;;;;;21074142;28;20032;-46
2024/01/14 12:33:23;;;;;;;4.57;2.38;;;1.80;96.70;;;;;;21073231;28;20048;-47
2024/01/14 12:43:25;;;;;;;4.93;2.58;;;2.40;98.30;;;;;;21067937;28;20036;-45
2024/01/14 12:53:29;;;;;;;4.80;2.55;;;3.00;97.20;;;;;;21066601;28;20032;-45
2024/01/14 13:03:38;;;;;;;5.60;2.67;;;3.30;96.20;;;;;;21066894;28;20125;-48
2024/01/14 13:13:40;;;;;;;3.85;2.47;;;3.50;96.90;;;;;;21072380;28;20040;-49
2024/01/14 13:23:42;;;;;;;4.57;2.78;;;3.60;96.20;;;;;;21066428;28;20027;-43
2024/01/14 13:33:47;;;;;;;5.32;2.53;;;3.60;95.10;;;;;;21050498;28;20047;-49
2024/01/14 13:43:48;;;;;;;4.63;2.63;;;3.30;97.00;;;;;;21068515;28;20070;-47
2024/01/14 13:53:53;;;;;;;4.93;2.63;;;3.40;97.50;;;;;;21034695;28;20042;-47
2024/01/14 14:03:55;;;;;;;5.00;3.03;;;3.30;96.60;;;;;;21055752;28;20028;-52
2024/01/14 14:13:58;;;;;;;4.80;2.80;;;2.80;96.90;;;;;;21027129;28;20474;-50
2024/01/14 14:24:00;;;;;;;6.32;3.13;;;2.30;98.10;;;;;;21059413;28;20105;-44
2024/01/14 14:34:02;;;;;;;4.60;2.55;;;1.60;98.00;;;;;;21064876;28;20052;-45
2024/01/14 14:44:04;;;;;;;6.78;3.22;;;1.30;99.40;;;;;;21065421;28;20044;-47
2024/01/14 14:54:06;;;;;;;4.45;2.80;;;1.10;99.90;;;;;;21065302;28;20490;-48
2024/01/14 15:04:09;;;;;;;6.43;3.30;;;1.00;99.90;;;;;;21054613;28;20032;-45
2024/01/14 15:14:11;;;;;;;5.82;3.35;;;0.70;99.90;;;;;;21056052;28;20032;-47
2024/01/14 15:24:13;;;;;;;5.05;2.38;;;0.40;99.90;;;;;;21064604;28;20032;-49
2024/01/14 15:34:15;;;;;;;5.13;3.00;;;-0.10;99.90;;;;;;21074562;28;20096;-45
2024/01/14 15:44:18;;;;;;;4.38;2.10;;;-0.50;99.90;;;;;;21078056;28;20047;-44
2024/01/14 15:54:23;;;;;;;3.28;1.70;;;-0.90;99.90;;;;;;21076061;28;20117;-45
2024/01/14 16:04:25;;;;;;;3.08;1.40;;;-1.30;99.90;;;;;;21039627;28;20048;-44
2024/01/14 16:14:27;;;;;;;3.42;1.60;;;-1.60;99.90;;;;;;21073325;28;20024;-48
2024/01/14 16:24:29;;;;;;;4.45;1.98;;;-1.60;99.90;;;;;;21072082;28;20032;-44
2024/01/14 16:34:32;;;;;;;7.82;1.60;;;-1.40;99.90;;;;;;21078803;28;20048;-47
2024/01/14 16:44:34;;;;;;;4.93;1.85;;;-1.10;99.90;;;;;;21079393;28;20032;-45
2024/01/14 16:54:36;;;;;;;4.13;1.80;;;-0.90;99.90;;;;;;21059878;28;20389;-45
2024/01/14 17:04:38;;;;;;;3.13;1.60;;;-0.70;99.90;;;;;;21077995;28;20032;-46
2024/01/14 17:14:40;;;;;;;4.43;1.45;;;-0.80;99.90;;;;;;21033557;28;20097;-45
2024/01/14 17:24:42;;;;;;;3.38;1.70;;;-0.90;99.90;;;;;;21075391;28;20046;-50
2024/01/14 17:34:44;;;;;;;3.20;1.90;;;-1.10;99.90;;;;;;21073509;28;20036;-45
2024/01/14 17:44:45;;;;;;;4.10;1.92;;;-1.10;99.90;;;;;;21061158;28;20048;-50
2024/01/14 17:54:47;;;;;;;4.13;2.00;;;-1.00;99.90;;;;;;21041823;28;20044;-49
2024/01/14 18:04:50;;;;;;;3.72;2.10;;;-0.90;99.90;;;;;;21061085;28;20487;-45
2024/01/14 18:14:52;;;;;;;6.03;2.95;;;-0.90;99.90;;;;;;20930493;28;20097;-44
2024/01/14 18:24:54;;;;;;;4.93;2.85;;;-0.80;99.90;;;;;;20944205;28;20040;-43
2024/01/14 18:34:56;;;;;;;7.28;3.03;;;-0.70;99.90;;;;;;20956055;28;20101;-43
2024/01/14 18:44:58;;;;;;;6.57;2.95;;;-0.80;99.90;;;;;;20983557;28;20040;-43
2024/01/14 18:55:07;;;;;;;8.30;4.60;;;-0.80;99.90;;;;;;20984700;28;20093;-47
2024/01/14 19:05:10;;;;;;;6.90;3.45;;;-0.80;99.90;;;;;;20983268;28;20051;-46
2024/01/14 19:15:12;;;;;;;7.75;4.22;;;-0.70;99.90;;;;;;20982525;28;20172;-44
2024/01/14 19:25:14;;;;;;;8.80;4.97;;;-0.90;99.90;;;;;;20981181;28;20032;-44
2024/01/14 19:35:16;;;;;;;10.63;5.88;;;-1.00;99.90;;;;;;20966510;28;20114;-44
2024/01/14 19:45:17;;;;;;;12.75;7.05;;;-1.10;99.90;;;;;;20938856;28;20048;-44
2024/01/14 19:55:19;;;;;;;10.43;4.63;;;-1.50;99.90;;;;;;20956612;28;20033;-42
2024/01/14 20:05:21;;;;;;;7.97;4.97;;;-1.90;99.90;;;;;;20936814;28;20111;-44
2024/01/14 20:15:23;;;;;;;11.48;6.05;;;-2.00;99.90;;;;;;20967058;28;20073;-45
2024/01/14 20:25:25;;;;;;;10.70;5.45;;;-1.70;99.90;;;;;;20945369;28;20040;-44
2024/01/14 20:35:27;;;;;;;12.50;5.35;;;-1.20;99.90;;;;;;20960263;28;20048;-44
2024/01/14 20:45:29;;;;;;;19.50;10.13;;;-0.80;99.90;;;;;;20993497;28;20065;-44
2024/01/14 20:55:31;;;;;;;20.27;11.45;;;-0.70;99.90;;;;;;20992669;28;20032;-46
2024/01/14 21:05:33;;;;;;;20.77;11.00;;;-0.60;99.90;;;;;;20991739;28;20389;-44
2024/01/14 21:15:36;;;;;;;27.38;15.25;;;-0.50;99.90;;;;;;20991754;28;20039;-44
2024/01/14 21:25:39;;;;;;;24.40;13.10;;;-0.80;99.90;;;;;;20989020;28;20108;-44
2024/01/14 21:35:41;;;;;;;26.05;15.10;;;-1.00;99.90;;;;;;20980542;28;20052;-43
2024/01/14 21:45:43;;;;;;;31.30;16.35;;;-1.10;99.90;;;;;;20949275;28;20048;-43
2024/01/14 21:55:46;;;;;;;23.60;13.30;;;-1.20;99.90;;;;;;20968786;28;20036;-43
2024/01/14 22:05:48;;;;;;;21.33;11.48;;;-1.30;99.90;;;;;;20941160;28;20062;-46
2024/01/14 22:15:49;;;;;;;13.23;8.13;;;-1.20;99.90;;;;;;20950582;28;21157;-42
2024/01/14 22:25:56;;;;;;;23.73;10.50;;;-1.00;99.90;;;;;;20931017;28;20101;-42
2024/01/14 22:35:58;;;;;;;13.98;8.38;;;-1.10;99.90;;;;;;20968262;28;20044;-42
2024/01/14 22:46:04;;;;;;;13.20;7.47;;;-0.90;99.90;;;;;;20984208;28;20565;-42
2024/01/14 22:56:06;;;;;;;14.95;6.88;;;-0.70;99.90;;;;;;20984011;28;20121;-46
2024/01/14 23:06:10;;;;;;;7.68;4.38;;;-0.70;99.90;;;;;;20982017;28;20119;-44
2024/01/14 23:16:12;;;;;;;6.35;3.92;;;-0.50;99.90;;;;;;20982898;28;20088;-46
2024/01/14 23:26:14;;;;;;;10.98;6.35;;;0.10;99.90;;;;;;20918787;28;20036;-43
2024/01/14 23:36:16;;;;;;;7.65;4.35;;;0.00;99.90;;;;;;20971738;28;20051;-48
2024/01/14 23:46:18;;;;;;;10.93;5.50;;;-0.10;99.90;;;;;;20938789;28;20048;-44
2024/01/14 23:56:20;;;;;;;5.97;2.65;;;0.00;99.90;;;;;;20977942;28;20097;-45
